sensor_id;sensor_type;location;lat;lon;timestamp;pressure;altitude;pressure_sealevel;temperature;humidity
65997;BME280;52765;52.258;21.052;2023-03-15T00:01:22;98817.78;;;9.56;100.00
65997;BME280;52765;52.258;21.052;2023-03-15T00:03:48;98827.78;;;9.62;100.00
65997;BME280;52765;52.258;21.052;2023-03-15T00:06:15;98831.63;;;9.53;100.00
65997;BME280;52765;52.258;21.052;2023-03-15T00:08:41;98847.66;;;9.61;100.00
65997;BME280;52765;52.258;21.052;2023-03-15T00:11:13;98848.09;;;9.65;100.00
65997;BME280;52765;52.258;21.052;2023-03-15T00:13:48;98834.59;;;9.58;99.99
65997;BME280;52765;52.258;21.052;2023-03-15T00:16:14;98847.25;;;9.64;100.00
65997;BME280;52765;52.258;21.052;2023-03-15T00:18:42;98844.75;;;9.62;100.00
65997;BME280;52765;52.258;21.052;2023-03-15T00:21:07;98861.81;;;9.70;100.00
65997;BME280;52765;52.258;21.052;2023-03-15T00:23:33;98853.13;;;9.68;99.81
65997;BME280;52765;52.258;21.052;2023-03-15T00:25:58;98861.81;;;9.70;99.57
65997;BME280;52765;52.258;21.052;2023-03-15T00:28:50;98853.84;;;9.61;99.75
65997;BME280;52765;52.258;21.052;2023-03-15T00:31:25;98873.59;;;9.69;99.69
65997;BME280;52765;52.258;21.052;2023-03-15T00:33:51;98876.72;;;9.72;99.41
65997;BME280;52765;52.258;21.052;2023-03-15T00:36:21;98881.47;;;9.70;99.29
65997;BME280;52765;52.258;21.052;2023-03-15T00:38:48;98886.84;;;9.70;99.40
65997;BME280;52765;52.258;21.052;2023-03-15T00:41:16;98901.50;;;9.68;99.47
65997;BME280;52765;52.258;21.052;2023-03-15T00:43:44;98891.13;;;9.65;99.44
65997;BME280;52765;52.258;21.052;2023-03-15T00:46:10;98907.81;;;9.60;100.00
65997;BME280;52765;52.258;21.052;2023-03-15T00:48:36;98975.66;;;9.09;99.19
65997;BME280;52765;52.258;21.052;2023-03-15T00:53:27;99034.50;;;7.85;92.54
65997;BME280;52765;52.258;21.052;2023-03-15T00:55:52;99015.53;;;7.06;93.39
65997;BME280;52765;52.258;21.052;2023-03-15T00:58:18;99033.09;;;6.25;96.32
65997;BME280;52765;52.258;21.052;2023-03-15T01:00:43;99050.22;;;5.80;98.54
65997;BME280;52765;52.258;21.052;2023-03-15T01:03:09;99070.53;;;5.28;100.00
65997;BME280;52765;52.258;21.052;2023-03-15T01:05:35;99069.56;;;4.93;100.00
65997;BME280;52765;52.258;21.052;2023-03-15T01:08:00;99098.78;;;4.95;100.00
65997;BME280;52765;52.258;21.052;2023-03-15T01:10:27;99129.94;;;4.76;100.00
65997;BME280;52765;52.258;21.052;2023-03-15T01:12:52;99126.00;;;4.71;100.00
65997;BME280;52765;52.258;21.052;2023-03-15T01:15:18;99140.75;;;4.47;100.00
65997;BME280;52765;52.258;21.052;2023-03-15T01:17:44;99147.44;;;4.51;100.00
65997;BME280;52765;52.258;21.052;2023-03-15T01:20:13;99162.66;;;4.41;100.00
65997;BME280;52765;52.258;21.052;2023-03-15T01:22:39;99165.31;;;4.41;100.00
65997;BME280;52765;52.258;21.052;2023-03-15T01:25:05;99195.31;;;4.15;100.00
65997;BME280;52765;52.258;21.052;2023-03-15T01:27:31;99192.09;;;4.02;100.00
65997;BME280;52765;52.258;21.052;2023-03-15T01:29:57;99196.34;;;3.75;100.00
65997;BME280;52765;52.258;21.052;2023-03-15T01:32:22;99235.72;;;3.81;100.00
65997;BME280;52765;52.258;21.052;2023-03-15T01:34:48;99222.84;;;3.77;100.00
65997;BME280;52765;52.258;21.052;2023-03-15T01:37:14;99216.25;;;3.81;100.00
65997;BME280;52765;52.258;21.052;2023-03-15T01:39:41;99230.09;;;3.94;100.00
65997;BME280;52765;52.258;21.052;2023-03-15T01:42:07;99229.56;;;3.91;100.00
65997;BME280;52765;52.258;21.052;2023-03-15T01:44:51;99246.22;;;3.93;100.00
65997;BME280;52765;52.258;21.052;2023-03-15T01:47:17;99236.31;;;3.85;100.00
65997;BME280;52765;52.258;21.052;2023-03-15T01:49:47;99255.09;;;3.74;100.00
65997;BME280;52765;52.258;21.052;2023-03-15T01:52:17;99259.13;;;3.78;100.00
65997;BME280;52765;52.258;21.052;2023-03-15T01:54:59;99258.31;;;3.77;100.00
65997;BME280;52765;52.258;21.052;2023-03-15T01:57:50;99266.13;;;3.59;100.00
65997;BME280;52765;52.258;21.052;2023-03-15T02:00:20;99277.78;;;3.48;100.00
65997;BME280;52765;52.258;21.052;2023-03-15T02:03:02;99296.00;;;3.53;100.00
65997;BME280;52765;52.258;21.052;2023-03-15T02:05:33;99307.22;;;3.57;100.00
65997;BME280;52765;52.258;21.052;2023-03-15T02:08:00;99327.97;;;3.53;100.00
65997;BME280;52765;52.258;21.052;2023-03-15T02:10:33;99333.94;;;3.36;100.00
65997;BME280;52765;52.258;21.052;2023-03-15T02:12:59;99352.91;;;3.21;100.00
65997;BME280;52765;52.258;21.052;2023-03-15T02:15:26;99364.56;;;3.20;100.00
65997;BME280;52765;52.258;21.052;2023-03-15T02:17:54;99382.50;;;3.28;100.00
65997;BME280;52765;52.258;21.052;2023-03-15T02:20:50;99400.69;;;3.23;100.00
65997;BME280;52765;52.258;21.052;2023-03-15T02:23:22;99391.31;;;3.19;100.00
65997;BME280;52765;52.258;21.052;2023-03-15T02:28:36;99416.72;;;3.32;100.00
65997;BME280;52765;52.258;21.052;2023-03-15T02:31:02;99429.00;;;3.24;100.00
65997;BME280;52765;52.258;21.052;2023-03-15T02:33:49;99438.72;;;3.34;100.00
65997;BME280;52765;52.258;21.052;2023-03-15T02:36:25;99461.59;;;3.37;100.00
65997;BME280;52765;52.258;21.052;2023-03-15T02:38:52;99446.44;;;3.38;100.00
65997;BME280;52765;52.258;21.052;2023-03-15T02:41:23;99450.50;;;3.32;100.00
65997;BME280;52765;52.258;21.052;2023-03-15T02:43:54;99465.31;;;3.25;100.00
65997;BME280;52765;52.258;21.052;2023-03-15T02:46:21;99475.16;;;3.13;100.00
65997;BME280;52765;52.258;21.052;2023-03-15T02:48:47;99473.81;;;3.19;100.00
65997;BME280;52765;52.258;21.052;2023-03-15T02:51:22;99484.47;;;3.19;100.00
65997;BME280;52765;52.258;21.052;2023-03-15T02:53:48;99486.31;;;3.28;100.00
65997;BME280;52765;52.258;21.052;2023-03-15T02:56:14;99504.25;;;3.26;100.00
65997;BME280;52765;52.258;21.052;2023-03-15T02:58:40;99505.81;;;3.28;100.00
65997;BME280;52765;52.258;21.052;2023-03-15T03:01:14;99506.22;;;3.24;100.00
65997;BME280;52765;52.258;21.052;2023-03-15T03:03:44;99515.34;;;3.31;99.52
65997;BME280;52765;52.258;21.052;2023-03-15T03:06:14;99527.31;;;3.37;100.00
65997;BME280;52765;52.258;21.052;2023-03-15T03:08:39;99519.31;;;3.37;100.00
65997;BME280;52765;52.258;21.052;2023-03-15T03:11:05;99529.03;;;3.26;100.00
65997;BME280;52765;52.258;21.052;2023-03-15T03:13:31;99535.56;;;3.33;99.53
65997;BME280;52765;52.258;21.052;2023-03-15T03:15:56;99541.31;;;3.18;100.00
65997;BME280;52765;52.258;21.052;2023-03-15T03:18:28;99552.97;;;3.17;100.00
65997;BME280;52765;52.258;21.052;2023-03-15T03:20:55;99550.59;;;3.02;100.00
65997;BME280;52765;52.258;21.052;2023-03-15T03:23:22;99559.41;;;3.03;100.00
65997;BME280;52765;52.258;21.052;2023-03-15T03:25:51;99565.31;;;3.06;100.00
65997;BME280;52765;52.258;21.052;2023-03-15T03:28:19;99563.53;;;3.07;100.00
65997;BME280;52765;52.258;21.052;2023-03-15T03:30:45;99563.28;;;3.10;100.00
65997;BME280;52765;52.258;21.052;2023-03-15T03:33:10;99574.25;;;3.17;100.00
65997;BME280;52765;52.258;21.052;2023-03-15T03:35:36;99578.91;;;3.24;100.00
65997;BME280;52765;52.258;21.052;2023-03-15T03:38:01;99586.50;;;3.29;100.00
65997;BME280;52765;52.258;21.052;2023-03-15T03:40:27;99605.41;;;3.26;100.00
65997;BME280;52765;52.258;21.052;2023-03-15T03:42:52;99600.34;;;3.23;100.00
65997;BME280;52765;52.258;21.052;2023-03-15T03:45:18;99618.09;;;3.33;100.00
65997;BME280;52765;52.258;21.052;2023-03-15T03:47:43;99611.72;;;3.25;100.00
65997;BME280;52765;52.258;21.052;2023-03-15T03:50:10;99631.44;;;3.22;100.00
65997;BME280;52765;52.258;21.052;2023-03-15T03:52:35;99616.75;;;3.28;100.00
65997;BME280;52765;52.258;21.052;2023-03-15T03:55:01;99618.97;;;3.23;100.00
65997;BME280;52765;52.258;21.052;2023-03-15T03:57:28;99625.50;;;3.30;100.00
65997;BME280;52765;52.258;21.052;2023-03-15T03:59:56;99646.03;;;3.28;100.00
65997;BME280;52765;52.258;21.052;2023-03-15T04:02:22;99650.16;;;3.32;100.00
65997;BME280;52765;52.258;21.052;2023-03-15T04:04:48;99659.97;;;3.31;99.83
65997;BME280;52765;52.258;21.052;2023-03-15T04:07:15;99664.44;;;3.31;100.00
65997;BME280;52765;52.258;21.052;2023-03-15T04:09:40;99661.31;;;3.26;100.00
65997;BME280;52765;52.258;21.052;2023-03-15T04:12:09;99670.00;;;3.28;100.00
65997;BME280;52765;52.258;21.052;2023-03-15T04:14:34;99676.19;;;3.28;100.00
65997;BME280;52765;52.258;21.052;2023-03-15T04:17:00;99669.03;;;3.29;99.53
65997;BME280;52765;52.258;21.052;2023-03-15T04:19:28;99688.91;;;3.25;100.00
65997;BME280;52765;52.258;21.052;2023-03-15T04:21:54;99675.44;;;3.26;100.00
65997;BME280;52765;52.258;21.052;2023-03-15T04:24:19;99688.56;;;3.18;99.96
65997;BME280;52765;52.258;21.052;2023-03-15T04:26:45;99685.28;;;3.14;100.00
65997;BME280;52765;52.258;21.052;2023-03-15T04:29:10;99698.81;;;3.23;100.00
65997;BME280;52765;52.258;21.052;2023-03-15T04:31:36;99698.03;;;3.43;100.00
65997;BME280;52765;52.258;21.052;2023-03-15T04:34:03;99698.38;;;3.50;99.76
65997;BME280;52765;52.258;21.052;2023-03-15T04:36:29;99693.13;;;3.60;97.91
65997;BME280;52765;52.258;21.052;2023-03-15T04:38:55;99700.47;;;3.67;96.91
65997;BME280;52765;52.258;21.052;2023-03-15T04:41:28;99706.63;;;3.68;96.95
65997;BME280;52765;52.258;21.052;2023-03-15T04:43:54;99724.53;;;3.77;95.42
65997;BME280;52765;52.258;21.052;2023-03-15T04:46:19;99719.09;;;3.67;95.88
65997;BME280;52765;52.258;21.052;2023-03-15T04:48:44;99733.13;;;3.69;95.26
65997;BME280;52765;52.258;21.052;2023-03-15T04:51:10;99726.06;;;3.59;95.48
65997;BME280;52765;52.258;21.052;2023-03-15T04:53:36;99733.84;;;3.50;94.53
65997;BME280;52765;52.258;21.052;2023-03-15T04:56:03;99710.38;;;3.44;95.17
65997;BME280;52765;52.258;21.052;2023-03-15T04:58:29;99723.47;;;3.36;93.90
65997;BME280;52765;52.258;21.052;2023-03-15T05:00:54;99729.56;;;3.27;94.74
65997;BME280;52765;52.258;21.052;2023-03-15T05:03:20;99733.16;;;3.37;95.08
65997;BME280;52765;52.258;21.052;2023-03-15T05:05:45;99740.91;;;3.40;94.55
65997;BME280;52765;52.258;21.052;2023-03-15T05:08:11;99741.34;;;3.45;94.93
65997;BME280;52765;52.258;21.052;2023-03-15T05:10:36;99742.09;;;3.36;93.58
65997;BME280;52765;52.258;21.052;2023-03-15T05:13:02;99758.97;;;3.14;92.13
65997;BME280;52765;52.258;21.052;2023-03-15T05:15:27;99744.72;;;2.92;93.08
65997;BME280;52765;52.258;21.052;2023-03-15T05:17:53;99754.66;;;3.02;91.68
65997;BME280;52765;52.258;21.052;2023-03-15T05:20:20;99745.78;;;3.12;91.34
65997;BME280;52765;52.258;21.052;2023-03-15T05:22:46;99764.16;;;3.27;90.11
65997;BME280;52765;52.258;21.052;2023-03-15T05:25:11;99770.56;;;3.36;87.97
65997;BME280;52765;52.258;21.052;2023-03-15T05:27:38;99774.56;;;3.30;87.87
65997;BME280;52765;52.258;21.052;2023-03-15T05:30:05;99785.16;;;3.41;87.03
65997;BME280;52765;52.258;21.052;2023-03-15T05:32:31;99786.06;;;3.30;87.19
65997;BME280;52765;52.258;21.052;2023-03-15T05:35:03;99783.88;;;3.36;87.78
65997;BME280;52765;52.258;21.052;2023-03-15T05:37:29;99788.72;;;3.30;87.58
65997;BME280;52765;52.258;21.052;2023-03-15T05:39:56;99794.38;;;3.37;87.62
65997;BME280;52765;52.258;21.052;2023-03-15T05:42:22;99794.25;;;3.50;87.79
65997;BME280;52765;52.258;21.052;2023-03-15T05:44:51;99804.38;;;3.56;87.76
65997;BME280;52765;52.258;21.052;2023-03-15T05:47:17;99795.44;;;3.57;86.71
65997;BME280;52765;52.258;21.052;2023-03-15T05:49:42;99808.38;;;3.62;85.85
65997;BME280;52765;52.258;21.052;2023-03-15T05:52:08;99815.16;;;3.55;87.61
65997;BME280;52765;52.258;21.052;2023-03-15T05:54:34;99822.78;;;3.59;87.61
65997;BME280;52765;52.258;21.052;2023-03-15T05:56:59;99828.63;;;3.53;87.84
65997;BME280;52765;52.258;21.052;2023-03-15T05:59:25;99829.47;;;3.54;87.81
65997;BME280;52765;52.258;21.052;2023-03-15T06:01:50;99839.16;;;3.43;87.83
65997;BME280;52765;52.258;21.052;2023-03-15T06:04:16;99842.09;;;3.29;88.27
65997;BME280;52765;52.258;21.052;2023-03-15T06:06:41;99855.03;;;3.22;87.53
65997;BME280;52765;52.258;21.052;2023-03-15T06:09:07;99860.34;;;3.33;86.53
65997;BME280;52765;52.258;21.052;2023-03-15T06:11:32;99868.81;;;3.27;85.61
65997;BME280;52765;52.258;21.052;2023-03-15T06:13:58;99863.13;;;3.32;85.51
65997;BME280;52765;52.258;21.052;2023-03-15T06:16:23;99866.88;;;3.29;84.06
65997;BME280;52765;52.258;21.052;2023-03-15T06:18:49;99864.81;;;3.44;84.74
65997;BME280;52765;52.258;21.052;2023-03-15T06:21:15;99874.03;;;3.51;83.40
65997;BME280;52765;52.258;21.052;2023-03-15T06:23:41;99887.69;;;3.47;84.35
65997;BME280;52765;52.258;21.052;2023-03-15T06:26:06;99886.97;;;3.45;84.07
65997;BME280;52765;52.258;21.052;2023-03-15T06:28:32;99882.97;;;3.50;83.29
65997;BME280;52765;52.258;21.052;2023-03-15T06:30:57;99905.72;;;3.55;82.62
65997;BME280;52765;52.258;21.052;2023-03-15T06:33:22;99896.66;;;3.46;83.40
65997;BME280;52765;52.258;21.052;2023-03-15T06:35:49;99909.97;;;3.46;82.29
65997;BME280;52765;52.258;21.052;2023-03-15T06:38:14;99918.94;;;3.33;82.63
65997;BME280;52765;52.258;21.052;2023-03-15T06:40:40;99924.75;;;3.39;83.03
65997;BME280;52765;52.258;21.052;2023-03-15T06:43:05;99931.50;;;3.43;83.20
65997;BME280;52765;52.258;21.052;2023-03-15T06:45:32;99942.19;;;3.31;82.86
65997;BME280;52765;52.258;21.052;2023-03-15T06:47:57;99947.34;;;3.33;82.47
65997;BME280;52765;52.258;21.052;2023-03-15T06:50:23;99959.34;;;3.39;83.35
65997;BME280;52765;52.258;21.052;2023-03-15T06:52:49;99966.59;;;3.48;82.66
65997;BME280;52765;52.258;21.052;2023-03-15T06:55:14;99972.44;;;3.53;82.13
65997;BME280;52765;52.258;21.052;2023-03-15T06:57:43;99970.16;;;3.60;82.97
65997;BME280;52765;52.258;21.052;2023-03-15T07:00:10;99963.00;;;3.72;81.02
65997;BME280;52765;52.258;21.052;2023-03-15T07:02:36;99965.13;;;3.89;80.75
65997;BME280;52765;52.258;21.052;2023-03-15T07:05:05;99981.34;;;3.97;80.63
65997;BME280;52765;52.258;21.052;2023-03-15T07:07:31;99992.25;;;4.05;81.40
65997;BME280;52765;52.258;21.052;2023-03-15T07:09:56;99995.50;;;4.09;80.48
65997;BME280;52765;52.258;21.052;2023-03-15T07:12:22;99990.66;;;4.03;78.99
65997;BME280;52765;52.258;21.052;2023-03-15T07:14:47;99995.78;;;3.95;78.90
65997;BME280;52765;52.258;21.052;2023-03-15T07:17:14;99984.50;;;3.91;79.86
65997;BME280;52765;52.258;21.052;2023-03-15T07:19:39;99994.56;;;3.99;79.12
65997;BME280;52765;52.258;21.052;2023-03-15T07:22:05;99997.09;;;4.12;78.66
65997;BME280;52765;52.258;21.052;2023-03-15T07:24:30;99982.16;;;4.20;77.89
65997;BME280;52765;52.258;21.052;2023-03-15T07:26:56;99992.72;;;4.22;76.26
65997;BME280;52765;52.258;21.052;2023-03-15T07:29:25;99994.19;;;4.03;77.91
65997;BME280;52765;52.258;21.052;2023-03-15T07:31:50;99997.22;;;3.87;79.02
65997;BME280;52765;52.258;21.052;2023-03-15T07:34:16;100002.59;;;3.65;80.16
65997;BME280;52765;52.258;21.052;2023-03-15T07:36:42;99991.56;;;3.58;81.02
65997;BME280;52765;52.258;21.052;2023-03-15T07:39:08;99993.84;;;3.63;82.08
65997;BME280;52765;52.258;21.052;2023-03-15T07:41:33;100004.88;;;3.81;82.65
65997;BME280;52765;52.258;21.052;2023-03-15T07:43:59;99995.78;;;3.72;80.99
65997;BME280;52765;52.258;21.052;2023-03-15T07:46:24;99996.75;;;3.82;82.68
65997;BME280;52765;52.258;21.052;2023-03-15T07:48:50;100003.28;;;4.01;80.77
65997;BME280;52765;52.258;21.052;2023-03-15T07:51:15;100012.03;;;3.92;80.80
65997;BME280;52765;52.258;21.052;2023-03-15T07:53:41;100007.66;;;3.68;81.82
65997;BME280;52765;52.258;21.052;2023-03-15T07:56:06;100020.25;;;3.66;82.98
65997;BME280;52765;52.258;21.052;2023-03-15T07:58:32;100017.13;;;3.72;83.10
65997;BME280;52765;52.258;21.052;2023-03-15T08:00:57;100028.38;;;3.76;82.63
65997;BME280;52765;52.258;21.052;2023-03-15T08:03:23;100037.56;;;3.83;83.38
65997;BME280;52765;52.258;21.052;2023-03-15T08:05:51;100054.19;;;3.86;81.50
65997;BME280;52765;52.258;21.052;2023-03-15T08:08:16;100065.19;;;3.82;80.40
65997;BME280;52765;52.258;21.052;2023-03-15T08:10:43;100052.47;;;3.85;80.93
65997;BME280;52765;52.258;21.052;2023-03-15T08:13:09;100052.34;;;4.10;79.68
65997;BME280;52765;52.258;21.052;2023-03-15T08:15:34;100060.69;;;4.28;78.29
65997;BME280;52765;52.258;21.052;2023-03-15T08:17:59;100070.75;;;4.35;76.91
65997;BME280;52765;52.258;21.052;2023-03-15T08:20:25;100077.50;;;4.39;77.57
65997;BME280;52765;52.258;21.052;2023-03-15T08:22:52;100071.22;;;4.29;77.80
65997;BME280;52765;52.258;21.052;2023-03-15T08:25:20;100068.56;;;4.18;78.95
65997;BME280;52765;52.258;21.052;2023-03-15T08:27:46;100083.59;;;4.30;78.33
65997;BME280;52765;52.258;21.052;2023-03-15T08:30:13;100099.97;;;4.37;77.60
65997;BME280;52765;52.258;21.052;2023-03-15T08:32:40;100094.97;;;4.43;79.13
65997;BME280;52765;52.258;21.052;2023-03-15T08:35:06;100098.72;;;4.41;77.23
65997;BME280;52765;52.258;21.052;2023-03-15T08:37:32;100104.06;;;4.52;77.09
65997;BME280;52765;52.258;21.052;2023-03-15T08:39:58;100111.19;;;4.63;75.98
65997;BME280;52765;52.258;21.052;2023-03-15T08:42:29;100107.47;;;4.32;77.94
65997;BME280;52765;52.258;21.052;2023-03-15T08:44:55;100114.13;;;4.37;78.50
65997;BME280;52765;52.258;21.052;2023-03-15T08:47:24;100118.44;;;4.72;77.32
65997;BME280;52765;52.258;21.052;2023-03-15T08:49:49;100121.25;;;4.59;76.88
65997;BME280;52765;52.258;21.052;2023-03-15T08:52:18;100123.22;;;4.46;76.32
65997;BME280;52765;52.258;21.052;2023-03-15T08:54:43;100117.91;;;4.35;77.55
65997;BME280;52765;52.258;21.052;2023-03-15T08:57:09;100124.31;;;4.32;78.42
65997;BME280;52765;52.258;21.052;2023-03-15T08:59:37;100147.56;;;4.53;78.17
65997;BME280;52765;52.258;21.052;2023-03-15T09:02:03;100155.84;;;4.38;73.98
65997;BME280;52765;52.258;21.052;2023-03-15T09:04:29;100149.28;;;4.54;74.08
65997;BME280;52765;52.258;21.052;2023-03-15T09:06:54;100148.56;;;4.63;73.43
65997;BME280;52765;52.258;21.052;2023-03-15T09:09:20;100142.31;;;4.85;69.38
65997;BME280;52765;52.258;21.052;2023-03-15T09:11:45;100146.56;;;5.20;66.96
65997;BME280;52765;52.258;21.052;2023-03-15T09:14:11;100158.44;;;5.27;64.95
65997;BME280;52765;52.258;21.052;2023-03-15T09:16:36;100158.09;;;4.88;65.92
65997;BME280;52765;52.258;21.052;2023-03-15T09:19:01;100163.91;;;4.82;66.13
65997;BME280;52765;52.258;21.052;2023-03-15T09:21:27;100159.72;;;4.57;66.68
65997;BME280;52765;52.258;21.052;2023-03-15T09:23:52;100166.94;;;4.89;65.96
65997;BME280;52765;52.258;21.052;2023-03-15T09:26:18;100172.13;;;5.02;65.38
65997;BME280;52765;52.258;21.052;2023-03-15T09:28:44;100176.00;;;4.97;64.55
65997;BME280;52765;52.258;21.052;2023-03-15T09:31:10;100167.50;;;5.36;65.97
65997;BME280;52765;52.258;21.052;2023-03-15T09:33:36;100168.00;;;5.62;63.78
65997;BME280;52765;52.258;21.052;2023-03-15T09:36:01;100164.88;;;5.99;61.43
65997;BME280;52765;52.258;21.052;2023-03-15T09:38:27;100173.28;;;5.73;60.54
65997;BME280;52765;52.258;21.052;2023-03-15T09:40:59;100172.97;;;5.67;61.66
65997;BME280;52765;52.258;21.052;2023-03-15T09:47:07;100180.94;;;5.99;61.34
65997;BME280;52765;52.258;21.052;2023-03-15T09:50:00;100189.75;;;5.57;57.68
65997;BME280;52765;52.258;21.052;2023-03-15T09:57:56;100164.75;;;5.80;57.57
65997;BME280;52765;52.258;21.052;2023-03-15T10:03:01;100167.38;;;5.05;59.22
65997;BME280;52765;52.258;21.052;2023-03-15T10:05:39;100162.97;;;5.15;59.68
65997;BME280;52765;52.258;21.052;2023-03-15T10:08:11;100176.47;;;5.03;59.65
65997;BME280;52765;52.258;21.052;2023-03-15T10:10:43;100160.75;;;4.88;59.88
65997;BME280;52765;52.258;21.052;2023-03-15T10:21:56;100167.00;;;5.84;56.69
65997;BME280;52765;52.258;21.052;2023-03-15T10:27:30;100181.16;;;6.38;55.00
65997;BME280;52765;52.258;21.052;2023-03-15T10:29:55;100171.13;;;6.09;56.05
65997;BME280;52765;52.258;21.052;2023-03-15T10:32:26;100178.38;;;6.19;55.77
65997;BME280;52765;52.258;21.052;2023-03-15T10:34:55;100187.31;;;5.87;56.12
65997;BME280;52765;52.258;21.052;2023-03-15T10:37:22;100166.59;;;6.00;57.07
65997;BME280;52765;52.258;21.052;2023-03-15T10:40:00;100173.66;;;6.32;54.34
65997;BME280;52765;52.258;21.052;2023-03-15T10:42:54;100170.22;;;6.20;54.10
65997;BME280;52765;52.258;21.052;2023-03-15T10:45:27;100174.78;;;6.29;54.09
65997;BME280;52765;52.258;21.052;2023-03-15T10:48:00;100176.31;;;6.32;54.35
65997;BME280;52765;52.258;21.052;2023-03-15T10:50:42;100173.00;;;6.40;54.49
65997;BME280;52765;52.258;21.052;2023-03-15T10:53:18;100172.50;;;6.65;53.61
65997;BME280;52765;52.258;21.052;2023-03-15T10:58:58;100173.41;;;6.85;53.37
65997;BME280;52765;52.258;21.052;2023-03-15T11:01:34;100171.69;;;6.65;53.14
65997;BME280;52765;52.258;21.052;2023-03-15T11:04:18;100164.25;;;6.78;52.92
65997;BME280;52765;52.258;21.052;2023-03-15T11:09:19;100177.88;;;6.04;52.89
65997;BME280;52765;52.258;21.052;2023-03-15T11:12:00;100195.53;;;5.95;53.37
65997;BME280;52765;52.258;21.052;2023-03-15T11:16:58;100185.22;;;5.90;54.50
65997;BME280;52765;52.258;21.052;2023-03-15T11:19:30;100175.00;;;6.17;54.70
65997;BME280;52765;52.258;21.052;2023-03-15T11:21:58;100184.09;;;6.35;54.53
65997;BME280;52765;52.258;21.052;2023-03-15T11:24:26;100179.53;;;6.26;54.01
65997;BME280;52765;52.258;21.052;2023-03-15T11:26:54;100191.59;;;6.41;54.00
65997;BME280;52765;52.258;21.052;2023-03-15T11:29:27;100190.34;;;6.24;53.46
65997;BME280;52765;52.258;21.052;2023-03-15T11:31:54;100194.31;;;5.99;52.68
65997;BME280;52765;52.258;21.052;2023-03-15T11:34:45;100185.44;;;6.20;52.83
65997;BME280;52765;52.258;21.052;2023-03-15T11:37:19;100190.91;;;6.49;51.73
65997;BME280;52765;52.258;21.052;2023-03-15T11:40:03;100171.78;;;6.54;51.65
65997;BME280;52765;52.258;21.052;2023-03-15T11:42:43;100182.72;;;6.81;51.27
65997;BME280;52765;52.258;21.052;2023-03-15T11:45:18;100189.72;;;6.73;51.29
65997;BME280;52765;52.258;21.052;2023-03-15T11:50:15;100183.25;;;6.35;51.74
65997;BME280;52765;52.258;21.052;2023-03-15T11:52:41;100199.19;;;6.36;52.32
65997;BME280;52765;52.258;21.052;2023-03-15T11:55:15;100200.41;;;6.11;53.44
65997;BME280;52765;52.258;21.052;2023-03-15T11:57:45;100204.28;;;6.18;53.30
65997;BME280;52765;52.258;21.052;2023-03-15T12:03:22;100200.78;;;6.48;52.53
65997;BME280;52765;52.258;21.052;2023-03-15T12:05:51;100210.41;;;6.30;52.70
65997;BME280;52765;52.258;21.052;2023-03-15T12:08:40;100198.25;;;6.26;53.35
65997;BME280;52765;52.258;21.052;2023-03-15T12:11:52;100208.19;;;6.14;52.68
65997;BME280;52765;52.258;21.052;2023-03-15T12:16:28;100208.56;;;6.30;51.29
65997;BME280;52765;52.258;21.052;2023-03-15T12:19:00;100213.56;;;6.45;51.24
65997;BME280;52765;52.258;21.052;2023-03-15T12:21:36;100210.53;;;7.00;50.85
65997;BME280;52765;52.258;21.052;2023-03-15T12:24:05;100199.41;;;7.14;50.01
65997;BME280;52765;52.258;21.052;2023-03-15T12:29:32;100218.91;;;7.46;49.04
65997;BME280;52765;52.258;21.052;2023-03-15T12:37:06;100228.63;;;6.77;51.11
65997;BME280;52765;52.258;21.052;2023-03-15T12:39:42;100233.50;;;6.62;51.34
65997;BME280;52765;52.258;21.052;2023-03-15T12:47:48;100251.50;;;6.29;53.05
65997;BME280;52765;52.258;21.052;2023-03-15T12:55:54;100255.31;;;6.88;51.49
65997;BME280;52765;52.258;21.052;2023-03-15T12:58:25;100258.31;;;6.95;50.66
65997;BME280;52765;52.258;21.052;2023-03-15T13:00:52;100263.78;;;6.93;51.74
65997;BME280;52765;52.258;21.052;2023-03-15T13:03:21;100260.50;;;6.80;51.83
65997;BME280;52765;52.258;21.052;2023-03-15T13:13:58;100275.94;;;6.66;51.38
65997;BME280;52765;52.258;21.052;2023-03-15T13:21:37;100285.34;;;6.61;50.69
65997;BME280;52765;52.258;21.052;2023-03-15T13:24:13;100282.44;;;6.74;50.69
65997;BME280;52765;52.258;21.052;2023-03-15T13:26:55;100292.38;;;6.83;50.95
65997;BME280;52765;52.258;21.052;2023-03-15T13:29:30;100295.34;;;6.90;48.75
65997;BME280;52765;52.258;21.052;2023-03-15T13:34:34;100299.78;;;6.48;47.97
65997;BME280;52765;52.258;21.052;2023-03-15T13:37:00;100295.34;;;6.17;49.42
65997;BME280;52765;52.258;21.052;2023-03-15T13:39:31;100295.34;;;6.17;49.35
65997;BME280;52765;52.258;21.052;2023-03-15T13:42:04;100299.78;;;6.27;49.57
65997;BME280;52765;52.258;21.052;2023-03-15T13:44:31;100306.56;;;6.53;49.61
65997;BME280;52765;52.258;21.052;2023-03-15T13:46:58;100309.22;;;7.04;49.13
65997;BME280;52765;52.258;21.052;2023-03-15T13:49:29;100317.44;;;7.13;49.25
65997;BME280;52765;52.258;21.052;2023-03-15T13:51:56;100312.09;;;7.13;49.42
65997;BME280;52765;52.258;21.052;2023-03-15T13:54:28;100314.28;;;7.08;50.09
65997;BME280;52765;52.258;21.052;2023-03-15T13:57:40;100300.28;;;6.94;49.90
65997;BME280;52765;52.258;21.052;2023-03-15T14:00:00;100313.66;;;7.25;48.75
65997;BME280;52765;52.258;21.052;2023-03-15T14:02:50;100322.31;;;7.38;48.74
65997;BME280;52765;52.258;21.052;2023-03-15T14:05:18;100308.53;;;7.12;48.82
65997;BME280;52765;52.258;21.052;2023-03-15T14:08:00;100320.72;;;7.26;47.98
65997;BME280;52765;52.258;21.052;2023-03-15T14:10:37;100308.34;;;7.04;47.19
65997;BME280;52765;52.258;21.052;2023-03-15T14:13:22;100331.91;;;6.79;48.13
65997;BME280;52765;52.258;21.052;2023-03-15T14:15:49;100325.03;;;6.56;48.12
65997;BME280;52765;52.258;21.052;2023-03-15T14:18:23;100313.69;;;6.21;48.96
65997;BME280;52765;52.258;21.052;2023-03-15T14:20:59;100329.13;;;5.97;51.10